createdAt,value
2022-11-06T00:03:39.174Z,105.00
2022-11-06T00:08:44.293Z,106.47
2022-11-06T00:13:50.693Z,96.83
2022-11-06T00:18:57.558Z,113.88
2022-11-06T00:24:03.267Z,107.07
2022-11-06T00:29:08.652Z,100.65
2022-11-06T00:34:13.862Z,109.60
2022-11-06T00:39:19.503Z,105.78
2022-11-06T00:44:25.009Z,97.47
2022-11-06T00:49:30.945Z,107.72
2022-11-06T00:54:36.127Z,117.15
2022-11-06T00:59:41.487Z,106.50
2022-11-06T01:04:46.414Z,99.20
2022-11-06T01:09:54.408Z,105.38
2022-11-06T01:14:59.961Z,97.25
2022-11-06T01:20:06.984Z,103.93
2022-11-06T01:25:12.344Z,89.70
2022-11-06T01:30:18.075Z,92.93
2022-11-06T01:35:23.231Z,89.00
2022-11-06T01:40:28.594Z,89.70
2022-11-06T01:45:36.443Z,84.27
2022-11-06T01:50:43.457Z,91.65
2022-11-06T01:55:50.398Z,94.95
2022-11-06T02:00:55.428Z,84.40
2022-11-06T02:06:00.682Z,102.45
2022-11-06T02:11:05.915Z,82.23
2022-11-06T02:16:23.349Z,89.80
2022-11-06T02:21:31.037Z,85.63
2022-11-06T02:26:54.567Z,84.72
2022-11-06T02:32:02.119Z,97.28
2022-11-06T02:37:10.332Z,87.97
2022-11-06T02:42:17.402Z,93.85
2022-11-06T02:47:24.019Z,85.55
2022-11-06T02:52:34.339Z,101.80
2022-11-06T02:57:41.810Z,101.40
2022-11-06T03:03:06.825Z,96.70
2022-11-06T03:08:16.323Z,103.25
2022-11-06T03:13:24.248Z,100.63
2022-11-06T03:18:49.439Z,73.05
2022-11-06T03:24:00.208Z,81.18
2022-11-06T03:29:23.904Z,75.32
2022-11-06T03:34:34.762Z,77.00
2022-11-06T03:39:42.648Z,77.63
2022-11-06T03:44:49.736Z,78.78
2022-11-06T03:49:58.197Z,79.53
2022-11-06T03:55:06.144Z,68.40
2022-11-06T04:00:11.840Z,58.90
2022-11-06T04:05:24.481Z,70.38
2022-11-06T04:10:47.915Z,56.85
2022-11-06T04:15:56.234Z,65.68
2022-11-06T04:21:28.203Z,63.38
2022-11-06T04:26:39.225Z,59.97
2022-11-06T04:31:52.148Z,68.00
2022-11-06T04:37:03.204Z,58.08
2022-11-06T04:42:34.425Z,88.63
2022-11-06T04:47:49.463Z,58.40
2022-11-06T04:52:58.631Z,59.67
2022-11-06T04:58:03.791Z,59.80
2022-11-06T05:03:09.595Z,67.47
2022-11-06T05:08:18.775Z,89.00
2022-11-06T05:13:24.120Z,64.03
2022-11-06T05:18:30.294Z,54.65
2022-11-06T05:23:47.641Z,67.75
2022-11-06T05:28:56.845Z,71.78
2022-11-06T05:34:03.183Z,60.50
2022-11-06T05:39:08.595Z,50.88
2022-11-06T05:44:13.809Z,57.77
2022-11-06T05:49:21.846Z,60.47
2022-11-06T05:54:27.322Z,58.92
2022-11-06T05:59:32.829Z,54.08
2022-11-06T06:04:37.987Z,48.88
2022-11-06T06:09:42.788Z,54.93
2022-11-06T06:14:50.390Z,52.87
2022-11-06T06:19:56.008Z,54.95
2022-11-06T06:25:01.238Z,54.23
2022-11-06T06:30:06.810Z,53.28
2022-11-06T06:35:12.033Z,53.67
2022-11-06T06:40:17.201Z,47.40
2022-11-06T06:45:22.438Z,61.03
2022-11-06T06:50:27.694Z,58.70
2022-11-06T06:55:32.802Z,48.47
2022-11-06T07:00:37.757Z,65.13
2022-11-06T07:05:43.102Z,62.27
2022-11-06T07:10:52.244Z,62.35
2022-11-06T07:15:57.402Z,60.53
2022-11-06T07:21:06.783Z,54.70
2022-11-06T07:26:12.099Z,68.68
2022-11-06T07:31:17.512Z,56.85
2022-11-06T07:36:22.653Z,68.33
2022-11-06T07:41:27.505Z,64.60
2022-11-06T07:46:32.397Z,65.40
2022-11-06T07:51:37.195Z,66.80
2022-11-06T07:56:42.649Z,64.77
2022-11-06T08:01:47.750Z,63.77
2022-11-06T08:06:53.644Z,67.75
2022-11-06T08:17:03.594Z,76.18
2022-11-06T08:22:10.323Z,74.72
2022-11-06T08:27:16.145Z,76.57
2022-11-06T08:37:28.973Z,70.88
2022-11-06T08:42:34.152Z,68.93
2022-11-06T08:47:39.767Z,72.57
2022-11-06T08:52:47.466Z,75.85
2022-11-06T08:57:52.988Z,75.65
2022-11-06T09:03:12.862Z,74.00
2022-11-06T09:08:18.111Z,70.25
2022-11-06T09:13:23.335Z,80.07
2022-11-06T09:18:28.512Z,66.47
2022-11-06T09:23:33.533Z,75.78
2022-11-06T09:28:38.765Z,75.18
2022-11-06T09:33:44.728Z,73.50
2022-11-06T09:38:49.981Z,74.22
2022-11-06T09:44:13.584Z,79.73
2022-11-06T09:49:30.391Z,90.18
2022-11-06T09:54:50.853Z,79.90
2022-11-06T10:00:00.552Z,102.00
2022-11-06T10:05:13.905Z,79.28
2022-11-06T10:10:20.338Z,82.55
2022-11-06T10:15:28.893Z,73.22
2022-11-06T10:20:36.999Z,85.63
2022-11-06T10:25:46.258Z,77.65
2022-11-06T10:30:51.408Z,84.07
2022-11-06T10:36:00.563Z,97.20
2022-11-06T10:41:05.764Z,72.93
2022-11-06T10:46:19.493Z,90.30
2022-11-06T10:51:33.774Z,94.75
2022-11-06T10:56:55.726Z,93.78
2022-11-06T11:02:03.282Z,84.22
2022-11-06T11:07:21.657Z,89.30
2022-11-06T11:12:30.456Z,85.05
2022-11-06T11:17:36.317Z,82.35
2022-11-06T11:22:41.316Z,85.80
2022-11-06T11:27:47.357Z,86.70
2022-11-06T11:32:56.014Z,83.15
2022-11-06T11:38:28.157Z,80.25
2022-11-06T11:43:34.260Z,84.47
2022-11-06T11:48:46.853Z,78.88
2022-11-06T11:53:52.328Z,88.53
2022-11-06T11:58:59.523Z,82.22
2022-11-06T12:04:10.592Z,90.38
2022-11-06T12:09:15.782Z,83.20
2022-11-06T12:14:24.986Z,98.33
2022-11-06T12:19:33.100Z,106.72
2022-11-06T12:24:42.373Z,96.25
2022-11-06T12:29:50.041Z,93.40
2022-11-06T12:35:14.907Z,94.10
2022-11-06T12:40:25.668Z,102.43
2022-11-06T12:45:49.484Z,111.10
2022-11-06T12:51:12.177Z,103.90
2022-11-06T12:56:24.700Z,113.47
2022-11-06T13:01:42.812Z,118.03
2022-11-06T13:07:06.052Z,126.18
2022-11-06T13:12:19.141Z,128.60
2022-11-06T13:17:27.235Z,129.13
2022-11-06T13:22:37.905Z,142.05
2022-11-06T13:27:42.728Z,123.90
2022-11-06T13:33:06.088Z,148.82
2022-11-06T13:38:15.911Z,116.88
2022-11-06T13:43:21.276Z,111.70
2022-11-06T13:48:26.819Z,106.07
2022-11-06T13:53:48.110Z,98.10
2022-11-06T13:59:11.835Z,99.28
2022-11-06T14:04:29.105Z,105.60
2022-11-06T14:09:36.040Z,96.22
2022-11-06T14:14:41.090Z,89.75
2022-11-06T14:19:52.878Z,77.97
2022-11-06T14:25:02.091Z,95.45
2022-11-06T14:30:09.531Z,94.00
2022-11-06T14:35:50.867Z,99.78
2022-11-06T14:40:56.306Z,95.85
2022-11-06T14:46:04.334Z,101.40
2022-11-06T14:51:12.194Z,98.35
2022-11-06T14:56:26.193Z,91.90
2022-11-06T15:01:34.942Z,75.35
2022-11-06T15:06:42.943Z,94.38
2022-11-06T15:11:52.352Z,96.07
2022-11-06T15:17:03.274Z,90.00
2022-11-06T15:22:10.767Z,78.00
2022-11-06T15:27:20.763Z,88.75
2022-11-06T15:32:26.867Z,87.68
2022-11-06T15:37:35.754Z,89.13
2022-11-06T15:42:40.889Z,101.20
2022-11-06T15:48:18.650Z,82.15
2022-11-06T15:53:27.618Z,92.70
2022-11-06T15:58:33.884Z,100.43
2022-11-06T16:03:47.691Z,93.07
2022-11-06T16:08:53.842Z,109.40
2022-11-06T16:19:25.367Z,94.35
2022-11-06T16:24:35.082Z,97.60
2022-11-06T16:29:41.734Z,94.95
2022-11-06T16:34:48.035Z,96.78
2022-11-06T16:39:54.116Z,101.00
2022-11-06T16:45:11.600Z,102.82
2022-11-06T16:50:39.537Z,86.53
2022-11-06T16:55:44.719Z,97.57
2022-11-06T17:00:57.063Z,78.33
2022-11-06T17:06:02.418Z,94.75
2022-11-06T17:11:16.496Z,99.20
2022-11-06T17:16:25.643Z,83.65
2022-11-06T17:21:30.730Z,86.95
2022-11-06T17:26:35.654Z,96.87
2022-11-06T17:31:40.867Z,94.28
2022-11-06T17:36:45.982Z,89.87
2022-11-06T17:41:51.131Z,86.47
2022-11-06T17:46:56.102Z,95.38
2022-11-06T17:52:02.001Z,88.43
2022-11-06T17:57:08.207Z,79.13
2022-11-06T18:02:21.724Z,79.45
2022-11-06T18:07:40.382Z,73.65
2022-11-06T18:12:45.551Z,80.63
2022-11-06T18:17:50.603Z,79.50
2022-11-06T18:22:55.528Z,69.15
2022-11-06T18:28:03.669Z,44.30
2022-11-06T18:33:08.795Z,62.90
2022-11-06T18:38:16.035Z,61.05
2022-11-06T18:43:21.483Z,61.38
2022-11-06T18:48:26.378Z,55.17
2022-11-06T18:53:31.604Z,54.27
2022-11-06T18:58:36.849Z,60.00
2022-11-06T19:03:42.344Z,56.43
2022-11-06T19:08:47.473Z,52.75
2022-11-06T19:13:52.344Z,47.43
2022-11-06T19:24:06.945Z,55.33
2022-11-06T19:29:12.911Z,56.43
2022-11-06T19:34:29.283Z,51.50
2022-11-06T19:39:36.757Z,51.55
2022-11-06T19:44:41.968Z,54.97
2022-11-06T19:49:46.760Z,52.57
2022-11-06T19:54:51.627Z,55.25
2022-11-06T20:00:17.503Z,58.63
2022-11-06T20:10:26.956Z,59.15
2022-11-06T20:15:32.279Z,58.33
2022-11-06T20:20:37.133Z,59.43
2022-11-06T20:25:42.251Z,70.32
2022-11-06T20:30:47.474Z,59.63
2022-11-06T20:35:52.857Z,60.17
2022-11-06T20:40:58.437Z,65.40
2022-11-06T20:46:04.040Z,64.38
2022-11-06T20:51:12.924Z,66.95
2022-11-06T20:56:19.121Z,69.28
2022-11-06T21:01:28.324Z,74.03
2022-11-06T21:06:35.085Z,75.32
2022-11-06T21:11:40.078Z,72.93
2022-11-06T21:16:44.950Z,74.45
2022-11-06T21:21:49.874Z,69.10
2022-11-06T21:26:58.375Z,70.10
2022-11-06T21:32:03.498Z,73.07
2022-11-06T21:37:08.585Z,76.67
2022-11-06T21:42:13.457Z,84.33
2022-11-06T21:47:18.379Z,88.53
2022-11-06T21:52:42.107Z,85.30
2022-11-06T21:57:48.287Z,87.95
2022-11-06T22:07:57.555Z,87.20
2022-11-06T22:13:02.718Z,92.60
2022-11-06T22:18:07.950Z,81.83
2022-11-06T22:23:13.384Z,67.67
2022-11-06T22:28:18.358Z,83.07
2022-11-06T22:33:23.413Z,78.15
2022-11-06T22:38:28.894Z,75.15
2022-11-06T22:43:36.842Z,65.68
2022-11-06T22:48:42.001Z,71.28
2022-11-06T22:53:46.888Z,61.85
2022-11-06T22:58:57.095Z,76.63
2022-11-06T23:04:05.592Z,72.13
2022-11-06T23:09:10.727Z,91.45
2022-11-06T23:14:15.633Z,107.00
2022-11-06T23:19:22.259Z,97.40
2022-11-06T23:24:27.093Z,109.70
2022-11-06T23:29:31.924Z,95.65
2022-11-06T23:34:37.156Z,98.45
2022-11-06T23:39:42.307Z,100.40
2022-11-06T23:45:06.337Z,103.40
2022-11-06T23:50:11.714Z,102.40
2022-11-06T23:55:16.517Z,115.93
